createdAt,value
2018-06-08T00:02:13.530Z,47.73
2018-06-08T00:07:42.920Z,45.40
2018-06-08T00:13:12.229Z,46.13
2018-06-08T00:18:41.488Z,47.20
2018-06-08T00:24:10.852Z,47.23
2018-06-08T00:29:40.159Z,51.73
2018-06-08T00:35:09.406Z,51.40
2018-06-08T00:40:38.644Z,50.10
2018-06-08T00:46:08.016Z,53.10
2018-06-08T00:51:37.944Z,52.38
2018-06-08T00:57:08.837Z,51.00
2018-06-08T01:02:38.081Z,52.00
2018-06-08T01:08:07.333Z,52.95
2018-06-08T01:13:37.316Z,53.17
2018-06-08T01:19:06.495Z,52.78
2018-06-08T01:24:35.727Z,55.90
2018-06-08T01:30:05.023Z,55.85
2018-06-08T01:35:34.311Z,57.25
2018-06-08T01:41:03.550Z,53.58
2018-06-08T01:46:32.745Z,54.90
2018-06-08T01:52:02.064Z,49.90
2018-06-08T01:57:31.236Z,55.00
2018-06-08T02:03:00.479Z,51.08
2018-06-08T02:08:29.698Z,46.10
2018-06-08T02:13:58.683Z,47.50
2018-06-08T02:19:27.835Z,44.10
2018-06-08T02:24:57.053Z,43.90
2018-06-08T02:30:26.273Z,39.88
2018-06-08T02:35:55.464Z,36.20
2018-06-08T02:41:24.651Z,42.05
2018-06-08T02:46:53.921Z,41.45
2018-06-08T02:52:23.167Z,42.13
2018-06-08T02:57:52.371Z,42.83
2018-06-08T03:03:21.650Z,50.95
2018-06-08T03:08:50.901Z,53.30
2018-06-08T03:14:20.135Z,48.75
2018-06-08T03:19:49.383Z,44.60
2018-06-08T03:25:18.598Z,44.15
2018-06-08T03:30:47.790Z,44.73
2018-06-08T03:36:17.014Z,40.90
2018-06-08T03:41:46.335Z,41.17
2018-06-08T03:47:15.670Z,44.13
2018-06-08T03:52:44.992Z,41.90
2018-06-08T03:58:14.207Z,35.50
2018-06-08T04:03:43.473Z,26.70
2018-06-08T04:09:12.894Z,30.15
2018-06-08T04:14:42.234Z,28.25
2018-06-08T04:20:11.779Z,24.75
2018-06-08T04:25:41.255Z,25.40
2018-06-08T04:31:10.594Z,30.00
2018-06-08T04:36:39.904Z,27.00
2018-06-08T04:42:09.216Z,29.15
2018-06-08T04:47:38.423Z,32.37
2018-06-08T04:53:07.634Z,33.42
2018-06-08T04:58:38.061Z,39.43
2018-06-08T05:04:07.282Z,43.42
2018-06-08T05:09:36.456Z,40.60
2018-06-08T05:15:05.699Z,41.45
2018-06-08T05:20:34.883Z,39.95
2018-06-08T05:26:04.086Z,37.67
2018-06-08T05:31:33.337Z,34.30
2018-06-08T05:37:02.573Z,34.95
2018-06-08T05:42:31.807Z,40.33
2018-06-08T05:48:01.023Z,34.33
2018-06-08T05:53:30.250Z,33.23
2018-06-08T05:58:59.448Z,35.85
2018-06-08T06:04:28.672Z,35.70
2018-06-08T06:09:57.910Z,34.90
2018-06-08T06:15:27.144Z,35.67
2018-06-08T06:20:56.346Z,30.82
2018-06-08T06:26:25.585Z,28.47
2018-06-08T06:31:54.795Z,18.65
2018-06-08T06:37:23.954Z,16.93
2018-06-08T06:42:53.157Z,21.07
2018-06-08T06:48:22.399Z,16.23
2018-06-08T06:53:51.663Z,28.43
2018-06-08T06:59:20.885Z,37.17
2018-06-08T07:04:50.079Z,29.87
2018-06-08T07:10:19.315Z,31.10
2018-06-08T07:15:48.631Z,34.20
2018-06-08T07:21:18.239Z,34.70
2018-06-08T07:26:47.548Z,43.68
2018-06-08T07:32:16.806Z,34.38
2018-06-08T07:37:46.104Z,32.20
2018-06-08T07:43:15.398Z,32.70
2018-06-08T07:48:45.892Z,29.60
2018-06-08T07:54:15.223Z,25.53
2018-06-08T07:59:44.500Z,33.50
2018-06-08T08:05:13.916Z,29.50
2018-06-08T08:10:43.283Z,30.05
2018-06-08T08:16:12.622Z,34.63
2018-06-08T08:21:41.945Z,34.80
2018-06-08T08:27:11.297Z,34.23
2018-06-08T08:32:40.660Z,30.92
2018-06-08T08:38:10.031Z,29.67
2018-06-08T08:43:39.257Z,28.80
2018-06-08T08:49:08.615Z,27.07
2018-06-08T08:54:37.963Z,32.15
2018-06-08T09:00:07.173Z,28.70
2018-06-08T09:05:36.456Z,30.43
2018-06-08T09:11:05.713Z,30.30
2018-06-08T09:16:35.016Z,30.60
2018-06-08T09:22:04.257Z,21.73
2018-06-08T09:27:33.498Z,22.90
2018-06-08T09:33:02.405Z,24.70
2018-06-08T09:38:31.619Z,18.62
2018-06-08T09:44:00.828Z,12.43
2018-06-08T09:49:30.082Z,16.70
2018-06-08T09:54:59.319Z,14.03
2018-06-08T10:00:33.891Z,14.13
2018-06-08T10:06:03.123Z,16.07
2018-06-08T10:11:32.382Z,14.78
2018-06-08T10:17:01.601Z,14.70
2018-06-08T10:22:30.923Z,15.60
2018-06-08T10:28:00.194Z,20.10
2018-06-08T10:33:29.418Z,23.02
2018-06-08T10:38:59.735Z,18.40
2018-06-08T10:44:29.036Z,19.20
2018-06-08T10:49:58.315Z,20.27
2018-06-08T10:55:27.586Z,15.43
2018-06-08T11:00:56.810Z,21.30
2018-06-08T11:06:26.075Z,17.90
2018-06-08T11:11:55.269Z,19.53
2018-06-08T11:17:24.445Z,21.90
2018-06-08T11:22:53.745Z,10.20
2018-06-08T11:28:23.018Z,17.80
2018-06-08T11:33:52.315Z,15.67
2018-06-08T11:39:21.540Z,14.20
2018-06-08T11:44:50.874Z,11.97
2018-06-08T11:50:20.190Z,11.88
2018-06-08T11:55:49.449Z,15.00
2018-06-08T12:01:18.830Z,9.10
2018-06-08T12:06:48.077Z,16.73
2018-06-08T12:12:17.376Z,9.88
2018-06-08T12:17:46.755Z,10.30
2018-06-08T12:23:16.123Z,13.43
2018-06-08T12:28:45.354Z,15.90
2018-06-08T12:34:14.584Z,10.77
2018-06-08T12:39:43.902Z,11.90
2018-06-08T12:45:13.515Z,10.80
2018-06-08T12:50:43.326Z,13.10
2018-06-08T12:56:12.746Z,9.33
2018-06-08T13:01:42.144Z,12.97
2018-06-08T13:07:11.618Z,9.47
2018-06-08T13:12:40.942Z,9.63
2018-06-08T13:18:10.326Z,7.30
2018-06-08T13:23:39.792Z,10.28
2018-06-08T13:29:09.061Z,10.60
2018-06-08T13:34:38.325Z,14.83
2018-06-08T13:40:07.610Z,9.90
2018-06-08T13:45:36.829Z,12.80
2018-06-08T13:51:06.084Z,7.70
2018-06-08T13:56:35.401Z,7.73
2018-06-08T14:02:04.737Z,14.38
2018-06-08T14:07:33.916Z,6.50
2018-06-08T14:13:03.170Z,10.67
2018-06-08T14:18:32.377Z,8.10
2018-06-08T14:24:01.624Z,8.43
2018-06-08T14:29:30.925Z,10.10
2018-06-08T14:35:00.210Z,5.97
2018-06-08T14:40:29.510Z,7.80
2018-06-08T14:45:58.834Z,6.00
2018-06-08T14:51:28.091Z,8.93
2018-06-08T14:56:58.592Z,7.17
2018-06-08T15:02:28.160Z,5.73
2018-06-08T15:07:57.403Z,9.95
2018-06-08T15:13:26.629Z,6.70
2018-06-08T15:18:55.985Z,8.57
2018-06-08T15:24:25.324Z,8.48
2018-06-08T15:29:54.577Z,8.48
2018-06-08T15:35:25.890Z,11.10
2018-06-08T15:40:56.165Z,8.60
2018-06-08T15:46:25.379Z,11.00
2018-06-08T15:51:55.645Z,10.17
2018-06-08T15:57:24.837Z,7.77
2018-06-08T16:02:56.112Z,13.57
2018-06-08T16:08:25.348Z,17.33
2018-06-08T16:13:54.541Z,5.95
2018-06-08T16:19:23.823Z,6.93
2018-06-08T16:24:53.142Z,8.27
2018-06-08T16:30:22.440Z,4.70
2018-06-08T16:35:51.742Z,7.05
2018-06-08T16:41:21.073Z,7.53
2018-06-08T16:46:50.299Z,10.60
2018-06-08T16:52:19.569Z,9.53
2018-06-08T16:57:48.685Z,6.87
2018-06-08T17:03:17.996Z,14.78
2018-06-08T17:08:47.361Z,19.60
2018-06-08T17:14:16.809Z,12.70
2018-06-08T17:19:46.167Z,20.32
2018-06-08T17:25:15.371Z,25.43
2018-06-08T17:30:45.873Z,24.98
2018-06-08T17:36:15.291Z,13.10
2018-06-08T17:41:44.636Z,15.98
2018-06-08T17:47:13.950Z,12.00
2018-06-08T17:52:44.630Z,16.53
2018-06-08T17:58:14.141Z,10.63
2018-06-08T18:03:43.660Z,14.60
2018-06-08T18:09:13.455Z,12.70
2018-06-08T18:14:43.048Z,8.60
2018-06-08T18:20:12.533Z,14.23
2018-06-08T18:25:42.232Z,12.53
2018-06-08T18:31:11.795Z,3.50
2018-06-08T18:36:41.199Z,6.25
2018-06-08T18:42:10.598Z,4.87
2018-06-08T18:47:39.948Z,5.97
2018-06-08T19:01:02.028Z,5.45
2018-06-08T19:06:31.304Z,4.30
2018-06-08T19:12:00.605Z,5.03
2018-06-08T19:17:29.816Z,4.40
2018-06-08T19:22:59.050Z,7.95
2018-06-08T19:28:28.283Z,5.30
2018-06-08T19:33:57.511Z,4.72
2018-06-08T19:39:26.938Z,8.78
2018-06-08T19:44:56.153Z,6.47
2018-06-08T19:50:25.489Z,6.17
2018-06-08T19:55:54.753Z,7.25
2018-06-08T20:01:24.072Z,5.78
2018-06-08T20:06:53.348Z,4.50
2018-06-08T20:12:22.605Z,4.17
2018-06-08T20:17:53.856Z,6.53
2018-06-08T20:23:24.095Z,8.75
2018-06-08T20:28:53.365Z,4.30
2018-06-08T20:34:22.722Z,5.25
2018-06-08T20:39:53.054Z,7.70
2018-06-08T20:45:23.378Z,6.47
2018-06-08T20:50:52.778Z,9.73
2018-06-08T20:56:23.311Z,10.82
2018-06-08T21:01:52.628Z,7.62
2018-06-08T21:07:22.325Z,7.78
2018-06-08T21:12:51.625Z,7.72
2018-06-08T21:18:21.179Z,9.38
2018-06-08T21:23:50.572Z,9.13
2018-06-08T21:29:19.903Z,7.87
2018-06-08T21:34:49.407Z,8.90
2018-06-08T21:40:19.257Z,5.25
2018-06-08T21:45:48.733Z,11.60
2018-06-08T21:51:18.029Z,8.83
2018-06-08T21:56:47.342Z,9.63
2018-06-08T22:02:17.701Z,7.70
2018-06-08T22:07:47.019Z,7.70
2018-06-08T22:13:16.381Z,15.60
2018-06-08T22:18:45.956Z,6.87
2018-06-08T22:24:16.515Z,7.15
2018-06-08T22:29:46.036Z,10.65
2018-06-08T22:35:15.169Z,7.65
2018-06-08T22:40:45.128Z,6.67
2018-06-08T22:46:14.643Z,7.55
2018-06-08T22:51:44.138Z,7.42
2018-06-08T22:57:14.694Z,8.33
2018-06-08T23:02:44.017Z,9.93
2018-06-08T23:08:13.415Z,9.03
2018-06-08T23:13:42.809Z,7.65
2018-06-08T23:19:12.269Z,5.30
2018-06-08T23:24:42.530Z,5.42
2018-06-08T23:30:11.882Z,6.37
2018-06-08T23:35:43.158Z,5.00
2018-06-08T23:41:12.514Z,4.80
2018-06-08T23:46:41.985Z,4.90
2018-06-08T23:52:11.404Z,6.83
2018-06-08T23:57:40.708Z,7.95
